Time;durP1;ratioP1;P1;durP2;ratioP2;P2;SDS_P1;SDS_P2;PMS_P1;PMS_P2;Temp;Humidity;BMP_temperature;BMP_pressure;BME280_temperature;BME280_humidity;BME280_pressure;Samples;Min_cycle;Max_cycle;Signal;HPM_P1;HPM_P2
2023/04/14 00:01:35;;;;;;;5.63;3.67;;;;;;;10.63;52.00;93879.09;5032854;28;20550;-77
2023/04/14 00:04:01;;;;;;;5.80;3.60;;;;;;;10.73;52.76;93879.03;5015123;28;20099;-78
2023/04/14 00:06:26;;;;;;;4.72;3.70;;;;;;;10.60;53.05;93876.81;5015209;28;20092;-77
2023/04/14 00:08:52;;;;;;;6.47;4.10;;;;;;;10.67;53.47;93883.06;5031486;28;20029;-78
2023/04/14 00:11:17;;;;;;;5.28;3.65;;;;;;;10.70;54.09;93879.34;5031331;28;20095;-77
2023/04/14 00:13:43;;;;;;;4.10;3.05;;;;;;;10.69;52.53;93873.31;5031433;28;20056;-78
2023/04/14 00:16:10;;;;;;;5.55;3.33;;;;;;;10.82;52.90;93864.31;5032506;28;20480;-78
2023/04/14 00:18:35;;;;;;;6.07;3.58;;;;;;;10.74;52.13;93847.69;5015036;28;20469;-77
2023/04/14 00:21:01;;;;;;;5.55;3.20;;;;;;;10.94;51.39;93858.72;4998763;28;20122;-78
2023/04/14 00:23:27;;;;;;;6.85;3.00;;;;;;;10.87;50.99;93849.91;5014499;28;20034;-78
2023/04/14 00:25:52;;;;;;;5.18;3.42;;;;;;;10.86;51.19;93842.25;5032302;28;20030;-77
2023/04/14 00:28:17;;;;;;;6.68;3.83;;;;;;;11.02;51.95;93852.75;5014702;28;20412;-78
2023/04/14 00:30:43;;;;;;;5.93;2.97;;;;;;;10.94;51.69;93842.31;5031192;28;20405;-78
2023/04/14 00:33:08;;;;;;;6.00;3.47;;;;;;;10.93;52.81;93851.09;5014843;28;20503;-78
2023/04/14 00:35:34;;;;;;;6.75;3.75;;;;;;;10.94;53.74;93832.72;5030753;28;20041;-78
2023/04/14 00:37:59;;;;;;;5.95;3.45;;;;;;;10.85;52.48;93838.03;5031149;28;20025;-79
2023/04/14 00:40:25;;;;;;;7.22;3.60;;;;;;;10.32;53.79;93836.31;5014079;28;20479;-78
2023/04/14 00:42:50;;;;;;;5.40;3.67;;;;;;;10.17;53.74;93839.41;5030332;28;20021;-78
2023/04/14 00:45:16;;;;;;;6.55;3.90;;;;;;;10.15;55.06;93856.09;5030629;28;20033;-78
2023/04/14 00:47:45;;;;;;;6.13;3.75;;;;;;;10.27;53.69;93850.56;5014370;28;20034;-79
2023/04/14 00:50:11;;;;;;;13.70;5.47;;;;;;;10.32;53.97;93851.91;5030760;28;20459;-79
2023/04/14 00:52:37;;;;;;;10.30;6.55;;;;;;;10.52;52.35;93855.97;5030277;28;20079;-78
2023/04/14 00:55:04;;;;;;;9.32;5.72;;;;;;;10.44;52.66;93869.69;5031716;28;20476;-79
2023/04/14 00:57:29;;;;;;;9.40;5.38;;;;;;;10.48;52.94;93859.84;5031670;28;20491;-79
2023/04/14 00:59:56;;;;;;;8.38;4.80;;;;;;;10.57;53.99;93860.72;4997716;28;20124;-78
2023/04/14 01:02:21;;;;;;;6.60;4.57;;;;;;;10.60;51.90;93845.66;5013774;28;20415;-78
2023/04/14 01:04:46;;;;;;;7.32;4.60;;;;;;;10.64;52.51;93849.59;5014105;28;20041;-78
2023/04/14 01:07:19;;;;;;;8.27;4.85;;;;;;;10.68;53.18;93842.31;5069096;28;20732;-78
2023/04/14 01:09:44;;;;;;;7.38;4.30;;;;;;;10.68;54.55;93843.13;5066882;28;20040;-76
2023/04/14 01:12:30;;;;;;;7.38;4.75;;;;;;;10.76;53.34;93850.16;5067195;28;20040;-78
2023/04/14 01:15:20;;;;;;;6.80;4.38;;;;;;;10.69;54.05;93855.13;5066930;28;20029;-77
2023/04/14 01:18:04;;;;;;;7.88;4.53;;;;;;;10.74;55.68;93845.09;5050692;28;20090;-77
2023/04/14 01:20:34;;;;;;;10.27;4.68;;;;;;;10.66;54.76;93828.63;5066858;28;20082;-77
2023/04/14 01:23:02;;;;;;;6.53;4.43;;;;;;;10.66;54.97;93844.22;5046572;28;20029;-77
2023/04/14 01:25:30;;;;;;;7.13;4.43;;;;;;;10.65;54.28;93843.41;5062814;28;20090;-77
2023/04/14 01:28:12;;;;;;;6.07;3.88;;;;;;;10.64;52.48;93831.41;5064996;28;20029;-77
2023/04/14 01:31:13;;;;;;;6.40;4.43;;;;;;;10.65;52.81;93822.63;5064259;28;20037;-77
2023/04/14 01:33:40;;;;;;;7.85;4.63;;;;;;;10.74;53.21;93841.69;5064466;28;20036;-77
2023/04/14 01:36:13;;;;;;;4.95;4.07;;;;;;;10.77;52.04;93830.19;5065048;28;20108;-78
2023/04/14 01:38:38;;;;;;;7.82;4.50;;;;;;;10.81;50.81;93839.28;5050880;28;20033;-77
2023/04/14 01:41:06;;;;;;;6.32;3.88;;;;;;;10.79;51.22;93833.44;5056274;28;20032;-77
2023/04/14 01:43:34;;;;;;;8.30;4.82;;;;;;;10.68;51.05;93813.72;5013665;28;20175;-77
2023/04/14 01:46:06;;;;;;;4.70;3.50;;;;;;;10.85;50.90;93835.44;5013492;28;20041;-78
2023/04/14 01:48:31;;;;;;;5.85;4.20;;;;;;;10.88;50.50;93832.53;5030149;28;20556;-78
2023/04/14 01:50:57;;;;;;;6.75;4.00;;;;;;;10.88;50.33;93822.13;5046395;28;20029;-77
2023/04/14 01:53:23;;;;;;;5.80;3.92;;;;;;;10.90;50.83;93820.22;5030282;28;20510;-76
2023/04/14 01:55:48;;;;;;;7.28;4.15;;;;;;;10.92;50.49;93813.06;5030343;28;20056;-78
2023/04/14 01:58:14;;;;;;;6.45;3.88;;;;;;;10.92;50.73;93823.44;5029716;28;20025;-78
2023/04/14 02:00:39;;;;;;;7.60;4.38;;;;;;;11.03;51.14;93836.22;5044584;28;20037;-78
2023/04/14 02:03:05;;;;;;;5.53;4.05;;;;;;;10.90;51.10;93828.00;5032925;28;20086;-78
2023/04/14 02:05:32;;;;;;;6.07;4.07;;;;;;;10.69;51.43;93776.38;5032776;28;20064;-78
2023/04/14 02:07:57;;;;;;;6.57;4.20;;;;;;;10.89;50.85;93819.41;5045995;28;20025;-77
2023/04/14 02:10:22;;;;;;;6.60;4.05;;;;;;;10.82;51.01;93817.56;5029382;28;20037;-78
2023/04/14 02:12:48;;;;;;;7.70;4.40;;;;;;;10.94;51.33;93816.31;5029793;28;20029;-78
2023/04/14 02:15:16;;;;;;;6.30;3.92;;;;;;;10.92;50.92;93831.25;5029279;28;20037;-78
2023/04/14 02:17:42;;;;;;;6.28;4.43;;;;;;;10.99;51.01;93840.06;5021944;28;20038;-77
2023/04/14 02:20:07;;;;;;;6.22;3.95;;;;;;;10.92;51.65;93832.09;4999794;28;20105;-78
2023/04/14 02:22:33;;;;;;;6.57;3.90;;;;;;;10.98;52.31;93845.41;5015919;28;20078;-77
2023/04/14 02:24:58;;;;;;;8.35;4.38;;;;;;;10.98;51.22;93835.00;5032260;28;20025;-78
2023/04/14 02:27:50;;;;;;;7.18;4.50;;;;;;;11.04;51.99;93839.63;5031556;28;20030;-78
2023/04/14 02:30:23;;;;;;;8.40;3.97;;;;;;;10.98;51.43;93833.25;5033584;28;20483;-78
2023/04/14 02:33:01;;;;;;;6.82;4.30;;;;;;;10.90;51.73;93843.59;5032982;28;20025;-77
2023/04/14 02:35:27;;;;;;;8.95;4.78;;;;;;;10.99;51.41;93832.28;5024039;28;20044;-80
2023/04/14 02:37:56;;;;;;;7.75;4.25;;;;;;;10.98;51.65;93845.41;5035548;28;20100;-78
2023/04/14 02:40:26;;;;;;;6.30;4.18;;;;;;;10.93;51.78;93825.09;5035683;28;20037;-78
2023/04/14 02:43:02;;;;;;;7.18;4.25;;;;;;;10.91;51.55;93822.63;5030974;28;20120;-77
2023/04/14 02:45:29;;;;;;;6.43;4.47;;;;;;;10.90;51.50;93817.59;5036316;28;20041;-77
2023/04/14 02:47:57;;;;;;;7.88;4.28;;;;;;;10.70;52.87;93798.81;5052179;28;20029;-77
2023/04/14 02:50:22;;;;;;;6.63;4.00;;;;;;;10.93;51.70;93827.69;5015105;28;20526;-78
2023/04/14 02:52:50;;;;;;;6.15;3.95;;;;;;;10.74;52.14;93826.91;5045671;28;20029;-78
2023/04/14 02:55:16;;;;;;;6.15;4.20;;;;;;;10.61;54.38;93826.50;5051684;28;20076;-78
2023/04/14 02:57:41;;;;;;;6.53;4.30;;;;;;;10.57;53.40;93842.53;5015120;28;20041;-77
2023/04/14 03:00:07;;;;;;;6.25;4.30;;;;;;;10.49;53.35;93809.53;5015386;28;20025;-78
2023/04/14 03:02:33;;;;;;;6.78;4.20;;;;;;;10.74;52.74;93837.31;5031579;28;20029;-78
2023/04/14 03:04:58;;;;;;;6.22;4.47;;;;;;;10.61;55.57;93826.50;5031607;28;20039;-77
2023/04/14 03:07:24;;;;;;;7.72;4.75;;;;;;;10.37;54.71;93816.75;5034922;28;20025;-78
2023/04/14 03:09:49;;;;;;;6.97;4.65;;;;;;;10.31;54.87;93817.34;5034986;28;20033;-77
2023/04/14 03:12:15;;;;;;;8.32;4.63;;;;;;;10.24;54.71;93808.47;5013608;28;20025;-78
2023/04/14 03:14:41;;;;;;;6.75;4.55;;;;;;;10.25;54.80;93813.53;5051471;28;20029;-77
2023/04/14 03:17:06;;;;;;;8.05;5.03;;;;;;;10.34;55.70;93808.44;5018340;28;20067;-79
2023/04/14 03:19:32;;;;;;;7.25;4.68;;;;;;;10.42;55.16;93811.09;5051440;28;20032;-78
2023/04/14 03:21:58;;;;;;;6.97;4.90;;;;;;;10.33;56.82;93822.38;5019414;28;20423;-78
2023/04/14 03:24:27;;;;;;;6.82;4.50;;;;;;;10.32;57.50;93805.19;5031281;28;20052;-77
2023/04/14 03:27:13;;;;;;;6.68;4.13;;;;;;;10.24;56.68;93808.47;5017787;28;20474;-78
2023/04/14 03:29:43;;;;;;;6.10;4.43;;;;;;;10.16;56.96;93806.63;5049957;28;20044;-78
2023/04/14 03:32:09;;;;;;;7.10;4.38;;;;;;;10.21;56.29;93796.63;5051167;28;20036;-80
2023/04/14 03:34:37;;;;;;;7.00;4.13;;;;;;;10.09;56.77;93792.63;5034673;28;20564;-78
2023/04/14 03:37:03;;;;;;;6.25;3.97;;;;;;;10.18;56.81;93803.91;5049959;28;20499;-78
2023/04/14 03:39:31;;;;;;;6.53;4.13;;;;;;;10.14;56.09;93792.16;5050197;28;20017;-77
2023/04/14 03:41:57;;;;;;;8.20;4.28;;;;;;;10.18;56.12;93785.72;5033016;28;20045;-78
2023/04/14 03:44:24;;;;;;;4.88;3.50;;;;;;;10.21;54.67;93780.22;5034717;28;20029;-77
2023/04/14 03:46:49;;;;;;;5.57;3.80;;;;;;;10.24;54.26;93780.75;5034236;28;20087;-79
2023/04/14 03:49:15;;;;;;;5.07;3.30;;;;;;;10.38;53.45;93781.22;5034109;28;20020;-77
2023/04/14 03:51:41;;;;;;;6.75;3.72;;;;;;;10.35;53.75;93771.94;5050641;28;20033;-78
2023/04/14 03:54:06;;;;;;;8.27;3.80;;;;;;;10.48;53.04;93754.19;5050799;28;20029;-78
2023/04/14 03:56:32;;;;;;;6.50;3.55;;;;;;;10.57;52.80;93756.84;5049826;28;20411;-78
2023/04/14 03:58:58;;;;;;;7.53;3.40;;;;;;;10.64;53.97;93757.84;5051017;28;20547;-78
2023/04/14 04:01:24;;;;;;;4.45;3.20;;;;;;;10.69;52.52;93742.63;5044276;28;20423;-78
2023/04/14 04:03:52;;;;;;;4.88;3.47;;;;;;;10.79;52.53;93739.94;5033320;28;20029;-80
2023/04/14 04:06:17;;;;;;;5.85;3.90;;;;;;;10.76;54.31;93743.66;5016763;28;20477;-78
2023/04/14 04:08:43;;;;;;;7.63;3.65;;;;;;;10.85;53.81;93749.69;5050443;28;20053;-78
2023/04/14 04:11:08;;;;;;;5.47;3.53;;;;;;;10.78;55.51;93741.72;5050066;28;20044;-78
2023/04/14 04:13:35;;;;;;;5.70;3.92;;;;;;;10.82;55.51;93743.03;5032298;28;20029;-78
2023/04/14 04:16:00;;;;;;;5.47;3.53;;;;;;;10.75;52.88;93736.81;5025963;28;20045;-79
2023/04/14 04:18:26;;;;;;;5.38;3.50;;;;;;;10.65;52.56;93739.53;5013945;28;20034;-78
2023/04/14 04:20:51;;;;;;;5.40;3.00;;;;;;;10.74;52.45;93738.59;5001202;28;20041;-78
2023/04/14 04:23:17;;;;;;;5.82;3.50;;;;;;;10.76;52.01;93730.66;5030677;28;20036;-78
2023/04/14 04:25:42;;;;;;;4.93;3.33;;;;;;;10.73;52.23;93739.56;5031965;28;20451;-78
2023/04/14 04:28:08;;;;;;;9.60;3.80;;;;;;;10.78;52.15;93738.28;5041172;28;20461;-76
2023/04/14 04:30:33;;;;;;;6.00;3.60;;;;;;;10.88;51.93;93752.00;5033367;28;20593;-78
2023/04/14 04:33:02;;;;;;;6.45;3.83;;;;;;;10.84;51.95;93750.69;5038602;28;20538;-78
2023/04/14 04:35:28;;;;;;;4.95;3.58;;;;;;;10.85;51.93;93745.31;5013711;28;20030;-78
2023/04/14 04:37:54;;;;;;;7.18;4.25;;;;;;;10.81;51.80;93737.97;5031791;28;20060;-78
2023/04/14 04:40:19;;;;;;;7.05;4.28;;;;;;;10.91;51.95;93743.88;5033241;28;20130;-78
2023/04/14 04:42:45;;;;;;;6.20;3.95;;;;;;;10.71;51.94;93719.91;5029435;28;20033;-78
2023/04/14 04:45:10;;;;;;;6.75;3.80;;;;;;;10.98;51.63;93755.28;5028612;28;20037;-78
2023/04/14 04:47:36;;;;;;;6.30;4.35;;;;;;;10.94;51.79;93759.16;5045171;28;20193;-78
2023/04/14 04:50:01;;;;;;;6.95;4.05;;;;;;;10.76;52.10;93742.84;5030391;28;20029;-78
2023/04/14 04:52:27;;;;;;;7.57;3.92;;;;;;;10.86;52.06;93778.09;5046924;28;20021;-79
2023/04/14 04:54:52;;;;;;;6.25;4.00;;;;;;;10.72;51.93;93773.47;5044732;28;20029;-80
2023/04/14 04:57:18;;;;;;;7.55;4.20;;;;;;;10.80;51.71;93775.31;5027392;28;20025;-79
2023/04/14 05:15:41;;;;;;;5.32;3.70;;;;;;;11.66;49.27;93764.78;5145458;27;20770;-68
2023/04/14 05:18:06;;;;;;;6.40;3.30;;;;;;;11.61;48.61;93767.88;5140540;27;20047;-69
2023/04/14 05:20:32;;;;;;;5.15;3.22;;;;;;;11.63;48.99;93765.13;5124534;27;20488;-67
2023/04/14 05:22:57;;;;;;;11.10;5.00;;;;;;;11.65;48.79;93738.97;5125022;27;20031;-69
2023/04/14 05:25:23;;;;;;;4.70;3.28;;;;;;;11.61;48.76;93736.66;5124242;27;20039;-67
2023/04/14 05:27:48;;;;;;;5.82;3.53;;;;;;;11.63;48.81;93737.31;5104289;28;20031;-68
2023/04/14 05:30:14;;;;;;;4.30;3.00;;;;;;;11.81;48.63;93758.00;5124313;27;20024;-68
2023/04/14 05:32:40;;;;;;;5.05;3.65;;;;;;;11.96;48.27;93745.22;5124978;27;20058;-69
2023/04/14 05:35:05;;;;;;;10.43;7.93;;;;;;;12.04;49.30;93763.44;5122388;28;20545;-67
2023/04/14 05:37:31;;;;;;;14.95;9.05;;;;;;;12.04;49.65;93727.00;5139024;27;20432;-68
2023/04/14 05:39:56;;;;;;;20.73;10.35;;;;;;;12.14;49.93;93741.63;5107918;28;20035;-67
2023/04/14 05:42:22;;;;;;;15.80;9.35;;;;;;;12.22;49.63;93713.00;5123933;28;20100;-68
2023/04/14 05:44:47;;;;;;;9.43;6.15;;;;;;;12.21;48.84;93700.97;5105959;28;20518;-68
2023/04/14 05:47:13;;;;;;;7.40;4.90;;;;;;;12.00;49.31;93706.66;5105905;28;20023;-67
2023/04/14 05:49:38;;;;;;;6.65;4.78;;;;;;;12.07;49.54;93705.84;5104945;28;20039;-68
2023/04/14 05:52:04;;;;;;;8.75;5.28;;;;;;;12.35;49.22;93702.09;5106153;28;20096;-67
2023/04/14 05:54:29;;;;;;;8.85;4.88;;;;;;;12.36;49.42;93693.28;5122790;27;20416;-67
2023/04/14 05:56:56;;;;;;;7.38;5.65;;;;;;;12.42;49.30;93688.22;5125003;28;20073;-67
2023/04/14 05:59:22;;;;;;;14.05;8.77;;;;;;;12.61;49.08;93689.66;5123277;27;20039;-68
2023/04/14 06:01:47;;;;;;;16.65;9.32;;;;;;;12.74;48.15;93681.34;5125834;28;20026;-69
2023/04/14 06:04:13;;;;;;;9.77;6.72;;;;;;;12.80;48.55;93678.06;5126191;27;20027;-68
2023/04/14 06:06:39;;;;;;;10.80;6.90;;;;;;;12.91;48.25;93672.47;5109407;28;20473;-68
2023/04/14 06:09:05;;;;;;;10.50;5.68;;;;;;;13.00;47.89;93675.84;5122784;27;20085;-68
2023/04/14 06:11:39;;;;;;;10.65;5.78;;;;;;;13.16;47.51;93664.56;5124348;27;20038;-68
2023/04/14 06:14:06;;;;;;;11.30;5.63;;;;;;;13.24;47.77;93671.53;5104372;28;20535;-68
2023/04/14 06:16:32;;;;;;;5.95;4.05;;;;;;;13.39;45.86;93670.63;5091966;28;20036;-68
2023/04/14 06:18:57;;;;;;;5.85;3.92;;;;;;;13.54;45.75;93656.84;5108795;28;20111;-68
2023/04/14 06:21:23;;;;;;;7.18;4.00;;;;;;;13.51;45.86;93657.22;5110169;28;20027;-68
2023/04/14 06:23:48;;;;;;;6.65;3.63;;;;;;;13.64;45.66;93660.88;5108793;28;20115;-68
2023/04/14 06:26:14;;;;;;;5.05;3.72;;;;;;;13.71;45.87;93650.56;5109698;28;20039;-68
2023/04/14 06:28:39;;;;;;;5.50;3.60;;;;;;;13.75;45.87;93643.19;5108411;28;20473;-68
2023/04/14 06:31:05;;;;;;;8.25;4.35;;;;;;;13.77;46.13;93642.03;5109798;28;20028;-68
2023/04/14 06:33:30;;;;;;;7.93;3.80;;;;;;;13.88;45.92;93625.16;5107536;28;20039;-68
2023/04/14 06:35:56;;;;;;;8.88;3.40;;;;;;;13.93;45.62;93619.38;5145889;27;20038;-70
2023/04/14 06:38:23;;;;;;;10.98;3.95;;;;;;;14.04;45.22;93603.28;5113895;28;20031;-69
2023/04/14 06:40:49;;;;;;;6.07;3.90;;;;;;;14.19;44.60;93616.41;5110564;27;20032;-69
2023/04/14 06:43:16;;;;;;;10.80;4.20;;;;;;;14.40;43.95;93602.63;5108167;28;20097;-69
2023/04/14 06:45:42;;;;;;;8.52;4.13;;;;;;;14.50;42.64;93575.25;5108694;28;20039;-69
2023/04/14 06:48:07;;;;;;;6.68;3.35;;;;;;;14.49;40.73;93563.19;5109353;28;20497;-69
2023/04/14 06:50:32;;;;;;;9.27;3.08;;;;;;;14.71;41.79;93560.66;5142257;27;20030;-68
2023/04/14 06:52:58;;;;;;;6.72;3.90;;;;;;;14.99;41.05;93558.19;5112383;28;20032;-68
2023/04/14 06:55:23;;;;;;;9.75;3.25;;;;;;;15.19;40.86;93563.63;5110289;28;20031;-68
2023/04/14 06:57:49;;;;;;;5.93;3.17;;;;;;;15.24;40.26;93549.97;5095094;28;20028;-69
2023/04/14 07:00:15;;;;;;;7.00;3.40;;;;;;;15.54;40.45;93550.66;5110102;28;20081;-68
2023/04/14 07:02:40;;;;;;;6.05;3.55;;;;;;;15.53;40.86;93539.38;5113074;28;20024;-68
2023/04/14 07:05:06;;;;;;;8.73;3.50;;;;;;;15.48;39.34;93531.28;5117535;27;20039;-68
2023/04/14 07:07:35;;;;;;;6.35;3.83;;;;;;;15.68;39.48;93548.97;5094364;28;20062;-69
2023/04/14 07:10:01;;;;;;;12.35;7.57;;;;;;;15.88;39.57;93550.00;5113385;27;20035;-68
2023/04/14 07:12:26;;;;;;;7.35;3.60;;;;;;;16.05;39.48;93530.38;5109319;28;20027;-68
2023/04/14 07:14:52;;;;;;;8.35;3.90;;;;;;;16.22;39.39;93543.97;5109179;28;20508;-68
2023/04/14 07:17:18;;;;;;;9.85;3.78;;;;;;;16.55;37.95;93538.13;5105433;28;20509;-68
2023/04/14 07:19:44;;;;;;;7.65;4.78;;;;;;;16.70;38.43;93540.59;5073468;28;20540;-69
2023/04/14 07:22:09;;;;;;;6.25;3.90;;;;;;;16.84;37.72;93526.56;5095814;28;20077;-69
2023/04/14 07:24:35;;;;;;;6.18;3.80;;;;;;;17.19;37.48;93518.63;5093675;28;20480;-68
2023/04/14 07:27:00;;;;;;;10.18;3.50;;;;;;;17.31;37.40;93501.25;5110125;28;20470;-68
2023/04/14 07:29:27;;;;;;;10.50;4.50;;;;;;;17.51;36.73;93503.91;5110689;28;20035;-69
2023/04/14 07:31:53;;;;;;;8.85;3.45;;;;;;;17.77;36.51;93500.47;5111381;28;20051;-68
2023/04/14 07:34:18;;;;;;;8.45;3.13;;;;;;;18.03;35.59;93494.44;5109420;28;20054;-68
2023/04/14 07:36:44;;;;;;;7.30;4.70;;;;;;;18.24;34.20;93505.69;5110231;28;20023;-68
2023/04/14 07:39:10;;;;;;;8.23;3.08;;;;;;;18.44;33.29;93492.50;5095900;28;20397;-68
2023/04/14 07:41:35;;;;;;;11.55;3.10;;;;;;;18.35;33.10;93496.38;5109510;28;20027;-68
2023/04/14 07:44:00;;;;;;;7.32;3.17;;;;;;;18.51;33.96;93509.09;5110178;28;20035;-67
2023/04/14 07:46:26;;;;;;;9.90;4.15;;;;;;;18.51;34.13;93507.25;5110456;28;20023;-68
2023/04/14 07:48:52;;;;;;;7.82;4.28;;;;;;;18.41;33.27;93513.94;5092356;28;20036;-68
2023/04/14 07:51:17;;;;;;;9.45;4.20;;;;;;;18.50;34.00;93521.44;5092167;28;20416;-69
2023/04/14 07:53:43;;;;;;;9.70;3.38;;;;;;;18.45;32.86;93521.22;5091574;28;20062;-68
2023/04/14 07:56:09;;;;;;;8.75;3.28;;;;;;;18.72;33.08;93516.69;5108250;28;20024;-68
2023/04/14 07:58:35;;;;;;;6.78;3.28;;;;;;;18.93;33.19;93527.97;5108043;28;20038;-68
2023/04/14 08:01:01;;;;;;;11.38;3.53;;;;;;;19.03;32.64;93512.56;5141240;27;20451;-69
2023/04/14 08:03:27;;;;;;;9.18;3.28;;;;;;;19.18;32.81;93497.28;5110114;28;20059;-68
2023/04/14 08:05:52;;;;;;;7.40;3.33;;;;;;;18.93;33.79;93506.94;5108932;28;20039;-68
2023/04/14 08:08:18;;;;;;;8.20;2.70;;;;;;;19.15;32.38;93507.44;5108899;28;20036;-68
2023/04/14 08:10:43;;;;;;;6.70;2.80;;;;;;;19.32;32.14;93489.31;5108568;28;20492;-68
2023/04/14 08:13:09;;;;;;;6.65;3.15;;;;;;;19.27;32.58;93460.16;5142886;27;20046;-68
2023/04/14 08:15:34;;;;;;;11.10;3.10;;;;;;;19.83;31.90;93468.06;5111039;28;20044;-68
2023/04/14 08:18:00;;;;;;;11.73;3.15;;;;;;;20.03;31.12;93474.97;5109581;28;20447;-68
2023/04/14 08:20:26;;;;;;;7.03;2.75;;;;;;;20.00;30.74;93465.72;5127567;27;20451;-68
2023/04/14 08:22:51;;;;;;;12.27;3.30;;;;;;;20.12;30.29;93471.06;5144891;27;20027;-68
2023/04/14 08:25:16;;;;;;;7.72;2.97;;;;;;;20.15;29.86;93475.09;5111660;28;20027;-68
2023/04/14 08:27:43;;;;;;;7.70;2.80;;;;;;;20.55;30.26;93472.84;5111818;28;20042;-68
2023/04/14 08:30:09;;;;;;;13.25;3.30;;;;;;;20.75;27.73;93473.44;5110371;28;20573;-68
2023/04/14 08:32:35;;;;;;;10.35;2.83;;;;;;;20.80;28.08;93474.59;5144599;27;20051;-68
2023/04/14 08:35:00;;;;;;;6.65;2.55;;;;;;;20.90;27.43;93473.06;5110426;28;20035;-68
2023/04/14 08:37:26;;;;;;;10.35;3.65;;;;;;;21.06;28.85;93498.03;5111620;28;20035;-68
2023/04/14 08:39:51;;;;;;;12.57;3.58;;;;;;;21.11;28.62;93510.53;5111653;28;20031;-68
2023/04/14 08:42:17;;;;;;;7.65;2.70;;;;;;;21.08;28.22;93503.06;5144688;27;20077;-68
2023/04/14 08:44:42;;;;;;;11.00;2.97;;;;;;;21.04;28.55;93492.16;5093345;28;20055;-68
2023/04/14 08:47:07;;;;;;;7.13;3.50;;;;;;;21.38;29.32;93484.63;5111435;28;20031;-68
2023/04/14 08:49:41;;;;;;;9.38;3.10;;;;;;;21.55;28.81;93475.00;5127487;27;20035;-68
2023/04/14 08:52:13;;;;;;;12.50;2.55;;;;;;;21.21;27.04;93497.63;5110425;28;20411;-68
2023/04/14 08:54:41;;;;;;;7.70;2.83;;;;;;;21.30;28.08;93482.28;5142716;27;20031;-68
2023/04/14 08:57:13;;;;;;;9.50;3.05;;;;;;;21.62;28.34;93490.78;5108689;28;20032;-68
2023/04/14 08:59:38;;;;;;;19.88;7.70;;;;;;;21.76;28.21;93492.19;5093272;28;20035;-68
2023/04/14 09:02:06;;;;;;;14.88;5.20;;;;;;;21.98;27.96;93502.19;5076179;28;20523;-68
2023/04/14 09:04:33;;;;;;;15.07;4.90;;;;;;;21.94;27.43;93458.75;5108740;28;20537;-68
2023/04/14 09:06:59;;;;;;;15.88;4.05;;;;;;;22.12;25.98;93460.47;5109929;28;20527;-68
2023/04/14 09:09:25;;;;;;;9.93;3.10;;;;;;;22.03;25.17;93475.88;5110096;28;20035;-67
2023/04/14 09:11:50;;;;;;;17.35;3.83;;;;;;;22.31;24.64;93480.50;5109500;28;20035;-68
2023/04/14 09:14:16;;;;;;;17.08;3.60;;;;;;;22.40;25.40;93473.00;5108963;28;20058;-68
2023/04/14 09:16:41;;;;;;;16.77;3.90;;;;;;;22.53;24.84;93496.56;5093069;28;20042;-68
2023/04/14 09:19:07;;;;;;;12.70;2.83;;;;;;;22.70;24.39;93497.47;5109879;28;20473;-68
2023/04/14 09:21:32;;;;;;;13.93;2.95;;;;;;;22.85;24.02;93483.75;5092620;28;20481;-68
2023/04/14 09:23:58;;;;;;;17.95;2.78;;;;;;;23.07;23.26;93491.88;5109999;28;20034;-68
2023/04/14 09:26:25;;;;;;;13.43;3.00;;;;;;;23.14;23.05;93500.47;5109883;28;20020;-68
2023/04/14 09:28:51;;;;;;;32.70;3.08;;;;;;;22.99;22.62;93467.63;5109899;28;20028;-68
2023/04/14 09:31:17;;;;;;;17.02;3.00;;;;;;;22.57;22.58;93454.59;5109803;28;20024;-68
2023/04/14 09:33:43;;;;;;;18.20;2.80;;;;;;;22.61;23.07;93488.28;5111062;28;20050;-68
2023/04/14 09:36:25;;;;;;;14.30;2.42;;;;;;;22.42;23.03;93503.47;5105860;28;20123;-68
2023/04/14 09:38:51;;;;;;;13.68;2.60;;;;;;;22.29;23.20;93493.16;5105713;28;20092;-68
2023/04/14 09:41:24;;;;;;;17.05;2.67;;;;;;;22.10;23.70;93473.94;5089195;28;20027;-68
2023/04/14 09:43:51;;;;;;;18.80;2.92;;;;;;;21.59;23.14;93491.22;5091210;28;20066;-67
2023/04/14 09:46:17;;;;;;;14.82;2.90;;;;;;;21.57;24.33;93509.94;5106401;28;20058;-68
2023/04/14 09:48:55;;;;;;;17.05;2.42;;;;;;;21.54;24.44;93499.84;5107393;28;20063;-68
2023/04/14 09:51:25;;;;;;;15.18;2.88;;;;;;;21.57;24.14;93506.50;5094280;28;20081;-69
2023/04/14 09:53:51;;;;;;;11.75;2.60;;;;;;;21.49;25.04;93543.81;5114797;27;20039;-68
2023/04/14 09:56:17;;;;;;;17.85;2.65;;;;;;;21.44;24.98;93538.38;5114637;28;20102;-68
2023/04/14 09:58:43;;;;;;;14.00;2.65;;;;;;;21.34;24.69;93531.78;5114726;28;20035;-68
2023/04/14 10:01:15;;;;;;;15.95;3.05;;;;;;;21.42;25.15;93517.47;5096394;28;20019;-68
2023/04/14 10:03:42;;;;;;;12.75;2.53;;;;;;;21.44;24.99;93544.47;5096746;28;20028;-68
2023/04/14 10:06:13;;;;;;;14.38;2.90;;;;;;;21.53;25.41;93534.38;5096407;28;20436;-68
2023/04/14 10:08:40;;;;;;;11.25;2.38;;;;;;;21.52;25.09;93524.84;5114603;28;20036;-69
2023/04/14 10:11:13;;;;;;;12.98;2.58;;;;;;;21.59;25.17;93554.63;5096292;28;20030;-68
2023/04/14 10:13:38;;;;;;;13.07;2.20;;;;;;;21.46;25.05;93539.78;5112861;28;20517;-68
2023/04/14 10:16:04;;;;;;;12.02;2.55;;;;;;;21.51;25.73;93574.25;5114518;28;20035;-68
2023/04/14 10:18:30;;;;;;;16.38;3.00;;;;;;;21.32;25.91;93559.44;5114448;28;20035;-68
2023/04/14 10:20:55;;;;;;;10.80;2.78;;;;;;;21.20;26.27;93567.28;5112983;28;20020;-67
2023/04/14 10:23:21;;;;;;;13.75;2.70;;;;;;;20.89;26.59;93582.25;5095823;28;20039;-68
2023/04/14 10:25:46;;;;;;;13.73;2.22;;;;;;;20.53;27.93;93609.41;5094945;28;20480;-69
2023/04/14 10:28:12;;;;;;;12.43;2.90;;;;;;;20.31;28.71;93567.63;5091565;28;20032;-69
2023/04/14 10:30:38;;;;;;;15.75;2.70;;;;;;;20.15;28.90;93580.53;5112360;28;20028;-69
2023/04/14 10:33:04;;;;;;;14.15;2.50;;;;;;;20.08;29.73;93584.00;5129156;27;20564;-68
2023/04/14 10:35:35;;;;;;;17.58;2.90;;;;;;;19.90;30.25;93599.78;5129619;27;20031;-68
2023/04/14 10:38:01;;;;;;;11.23;2.80;;;;;;;19.80;30.46;93604.69;5128606;27;20016;-68
2023/04/14 10:40:26;;;;;;;12.80;3.05;;;;;;;19.90;30.55;93644.56;5112545;28;20072;-69
2023/04/14 10:42:53;;;;;;;14.38;3.55;;;;;;;19.76;32.29;93656.22;5113549;28;20020;-69
2023/04/14 10:45:18;;;;;;;13.18;3.58;;;;;;;19.48;33.97;93699.47;5113397;28;20031;-69
2023/04/14 10:47:44;;;;;;;9.50;3.13;;;;;;;18.99;34.87;93674.50;5102629;27;20101;-69
2023/04/14 10:50:19;;;;;;;8.45;2.80;;;;;;;18.76;35.70;93696.00;5134458;27;20057;-70
2023/04/14 10:52:49;;;;;;;8.95;2.90;;;;;;;18.72;35.57;93723.66;5116178;27;20022;-70
2023/04/14 10:55:14;;;;;;;11.00;3.33;;;;;;;18.76;36.00;93745.97;5115463;27;20526;-67
2023/04/14 10:57:42;;;;;;;11.73;2.53;;;;;;;18.72;35.53;93750.81;5103652;27;20023;-70
2023/04/14 11:00:20;;;;;;;8.48;2.60;;;;;;;19.01;35.01;93785.63;5074941;28;20032;-69
2023/04/14 11:02:56;;;;;;;13.07;3.67;;;;;;;18.99;35.17;93808.69;5106554;28;20019;-69
2023/04/14 11:05:21;;;;;;;10.32;2.58;;;;;;;18.93;35.31;93804.25;5073514;28;20047;-68
2023/04/14 11:07:48;;;;;;;6.55;2.30;;;;;;;19.01;36.29;93825.09;5107852;27;20488;-68
2023/04/14 11:10:16;;;;;;;5.90;2.50;;;;;;;19.13;36.92;93838.44;5108409;27;20097;-68
2023/04/14 11:12:42;;;;;;;7.50;2.40;;;;;;;19.33;35.99;93856.88;5108435;28;20031;-67
2023/04/14 11:15:08;;;;;;;5.15;1.70;;;;;;;19.29;37.03;93877.53;5090046;28;20069;-68
2023/04/14 11:17:41;;;;;;;3.38;1.27;;;;;;;19.17;37.53;93893.13;5108271;28;20023;-69
2023/04/14 11:20:22;;;;;;;5.55;1.80;;;;;;;18.68;37.44;93911.84;5109475;27;20085;-68
2023/04/14 11:22:51;;;;;;;;;;;;;;;18.57;37.44;93901.91;5108132;27;20031;-68
2023/04/14 11:25:18;;;;;;;1.85;0.80;;;;;;;18.03;37.48;93906.13;5109063;27;20282;-68
2023/04/14 11:27:44;;;;;;;5.90;1.65;;;;;;;17.55;38.61;93898.13;5073869;28;20043;-69
2023/04/14 11:30:17;;;;;;;2.55;0.90;;;;;;;16.75;39.53;93879.09;5074858;28;20122;-68
2023/04/14 11:32:50;;;;;;;1.85;0.73;;;;;;;16.75;40.14;93894.84;5099776;28;20122;-68
2023/04/14 11:35:19;;;;;;;1.80;0.80;;;;;;;16.80;39.40;93892.50;5106949;28;20107;-68
2023/04/14 11:37:47;;;;;;;2.42;0.60;;;;;;;16.60;39.64;93910.59;5090503;28;20027;-68
2023/04/14 11:40:13;;;;;;;3.05;0.80;;;;;;;16.59;39.71;93918.66;5090385;28;20459;-69
2023/04/14 11:42:59;;;;;;;1.17;0.60;;;;;;;16.53;38.85;93928.06;5105085;28;20023;-69
2023/04/14 11:45:28;;;;;;;1.70;0.60;;;;;;;16.49;38.42;93938.13;5105468;28;20075;-68
2023/04/14 11:48:06;;;;;;;1.35;0.50;;;;;;;16.34;38.74;93966.16;5106598;28;20031;-68